Ocean City, New Jersey
Current Conditions -  °F | °C
As of 12:54 PM on Thursday 30 Oct 2014 (Local Time) from KACY Reporting Station
Broken Clouds Broken Clouds  
Wind Chill: 59°   Ceiling: 7000
Heat Index: 59°   Visibility: 10mi
Dew Point: 44°   Wind: 6mph
Humidity: 58%   Direction: NA
Pressure: 30"   Gusts: NA
Location:  39.28°N, 74.57°W
Report Text: KACY 301654Z VRB05KT 10SM BKN070 15/07 A3000 RMK AO2 SLP157 T01500067
Loading
Personal Weather Stations






























Interactive Weather Map
Tropical Storm Tracking
New forecast layout! Learn more

10-Day Weather Forecast

Advertisements
Track Severe Weather on mobile